sensor_id;sensor_type;location;lat;lon;timestamp;P1;durP1;ratioP1;P2;durP2;ratioP2
8297;SDS011;4187;42.778;23.242;2024-03-02T00:01:09;28.10;;;20.80;;
8297;SDS011;4187;42.778;23.242;2024-03-02T00:03:37;33.80;;;24.23;;
8297;SDS011;4187;42.778;23.242;2024-03-02T00:06:04;30.23;;;20.77;;
8297;SDS011;4187;42.778;23.242;2024-03-02T00:08:31;35.37;;;22.07;;
8297;SDS011;4187;42.778;23.242;2024-03-02T00:11:00;30.87;;;20.77;;
8297;SDS011;4187;42.778;23.242;2024-03-02T00:13:28;29.20;;;19.63;;
8297;SDS011;4187;42.778;23.242;2024-03-02T00:15:56;28.17;;;20.67;;
8297;SDS011;4187;42.778;23.242;2024-03-02T00:18:25;28.17;;;19.97;;
8297;SDS011;4187;42.778;23.242;2024-03-02T00:20:53;29.53;;;19.53;;
8297;SDS011;4187;42.778;23.242;2024-03-02T00:23:20;27.60;;;19.97;;
8297;SDS011;4187;42.778;23.242;2024-03-02T00:25:48;31.87;;;20.17;;
8297;SDS011;4187;42.778;23.242;2024-03-02T00:28:20;27.57;;;20.30;;
8297;SDS011;4187;42.778;23.242;2024-03-02T00:30:51;25.83;;;20.07;;
8297;SDS011;4187;42.778;23.242;2024-03-02T00:33:22;28.13;;;20.57;;
8297;SDS011;4187;42.778;23.242;2024-03-02T00:35:50;26.97;;;18.47;;
8297;SDS011;4187;42.778;23.242;2024-03-02T00:38:17;29.57;;;20.47;;
8297;SDS011;4187;42.778;23.242;2024-03-02T00:40:44;29.37;;;21.43;;
8297;SDS011;4187;42.778;23.242;2024-03-02T00:46:07;29.37;;;20.60;;
8297;SDS011;4187;42.778;23.242;2024-03-02T00:48:34;29.20;;;20.70;;
8297;SDS011;4187;42.778;23.242;2024-03-02T00:51:02;30.13;;;20.33;;
8297;SDS011;4187;42.778;23.242;2024-03-02T00:53:30;32.53;;;22.20;;
8297;SDS011;4187;42.778;23.242;2024-03-02T00:55:58;29.80;;;20.60;;
8297;SDS011;4187;42.778;23.242;2024-03-02T00:58:25;32.57;;;21.80;;
8297;SDS011;4187;42.778;23.242;2024-03-02T01:00:53;29.98;;;20.85;;
8297;SDS011;4187;42.778;23.242;2024-03-02T01:03:20;27.53;;;20.17;;
8297;SDS011;4187;42.778;23.242;2024-03-02T01:05:47;30.27;;;21.53;;
8297;SDS011;4187;42.778;23.242;2024-03-02T01:08:14;29.85;;;20.00;;
8297;SDS011;4187;42.778;23.242;2024-03-02T01:10:41;30.93;;;21.87;;
8297;SDS011;4187;42.778;23.242;2024-03-02T01:13:08;31.97;;;21.63;;
8297;SDS011;4187;42.778;23.242;2024-03-02T01:15:35;26.87;;;19.80;;
8297;SDS011;4187;42.778;23.242;2024-03-02T01:18:03;29.57;;;19.90;;
8297;SDS011;4187;42.778;23.242;2024-03-02T01:20:30;27.60;;;19.20;;
8297;SDS011;4187;42.778;23.242;2024-03-02T01:22:57;34.93;;;20.57;;
8297;SDS011;4187;42.778;23.242;2024-03-02T01:25:24;29.47;;;19.83;;
8297;SDS011;4187;42.778;23.242;2024-03-02T01:27:51;25.20;;;19.80;;
8297;SDS011;4187;42.778;23.242;2024-03-02T01:30:18;31.00;;;21.93;;
8297;SDS011;4187;42.778;23.242;2024-03-02T01:32:45;30.00;;;20.90;;
8297;SDS011;4187;42.778;23.242;2024-03-02T01:35:13;31.30;;;21.37;;
8297;SDS011;4187;42.778;23.242;2024-03-02T01:37:40;31.50;;;20.97;;
8297;SDS011;4187;42.778;23.242;2024-03-02T01:40:07;31.17;;;21.80;;
8297;SDS011;4187;42.778;23.242;2024-03-02T01:42:35;28.80;;;20.33;;
8297;SDS011;4187;42.778;23.242;2024-03-02T01:45:03;32.27;;;22.33;;
8297;SDS011;4187;42.778;23.242;2024-03-02T01:47:31;30.43;;;21.20;;
8297;SDS011;4187;42.778;23.242;2024-03-02T01:49:58;30.17;;;21.00;;
8297;SDS011;4187;42.778;23.242;2024-03-02T01:52:27;29.07;;;21.20;;
8297;SDS011;4187;42.778;23.242;2024-03-02T01:54:54;31.83;;;21.03;;
8297;SDS011;4187;42.778;23.242;2024-03-02T01:57:21;30.00;;;21.00;;
8297;SDS011;4187;42.778;23.242;2024-03-02T01:59:48;31.87;;;21.47;;
8297;SDS011;4187;42.778;23.242;2024-03-02T02:02:15;28.47;;;20.13;;
8297;SDS011;4187;42.778;23.242;2024-03-02T02:04:42;28.23;;;20.43;;
8297;SDS011;4187;42.778;23.242;2024-03-02T02:07:09;35.83;;;21.42;;
8297;SDS011;4187;42.778;23.242;2024-03-02T02:09:37;28.63;;;20.70;;
8297;SDS011;4187;42.778;23.242;2024-03-02T02:12:04;30.38;;;22.13;;
8297;SDS011;4187;42.778;23.242;2024-03-02T02:14:32;31.40;;;22.77;;
8297;SDS011;4187;42.778;23.242;2024-03-02T02:16:59;31.57;;;21.70;;
8297;SDS011;4187;42.778;23.242;2024-03-02T02:19:26;29.63;;;20.50;;
8297;SDS011;4187;42.778;23.242;2024-03-02T02:21:54;30.13;;;21.40;;
8297;SDS011;4187;42.778;23.242;2024-03-02T02:24:22;30.38;;;21.95;;
8297;SDS011;4187;42.778;23.242;2024-03-02T02:26:49;32.13;;;21.63;;
8297;SDS011;4187;42.778;23.242;2024-03-02T02:29:16;25.85;;;20.90;;
8297;SDS011;4187;42.778;23.242;2024-03-02T02:31:43;31.50;;;21.80;;
8297;SDS011;4187;42.778;23.242;2024-03-02T02:34:09;29.37;;;21.83;;
8297;SDS011;4187;42.778;23.242;2024-03-02T02:36:36;26.73;;;20.40;;
8297;SDS011;4187;42.778;23.242;2024-03-02T02:39:06;28.37;;;21.10;;
8297;SDS011;4187;42.778;23.242;2024-03-02T02:41:36;33.40;;;21.63;;
8297;SDS011;4187;42.778;23.242;2024-03-02T02:44:02;30.63;;;21.73;;
8297;SDS011;4187;42.778;23.242;2024-03-02T02:46:29;30.77;;;21.10;;
8297;SDS011;4187;42.778;23.242;2024-03-02T02:48:56;32.23;;;21.77;;
8297;SDS011;4187;42.778;23.242;2024-03-02T02:51:23;28.70;;;20.27;;
8297;SDS011;4187;42.778;23.242;2024-03-02T02:53:50;30.70;;;23.03;;
8297;SDS011;4187;42.778;23.242;2024-03-02T02:56:18;30.53;;;21.63;;
8297;SDS011;4187;42.778;23.242;2024-03-02T02:58:45;31.43;;;21.90;;
8297;SDS011;4187;42.778;23.242;2024-03-02T03:01:12;30.03;;;21.30;;
8297;SDS011;4187;42.778;23.242;2024-03-02T03:03:39;29.30;;;20.98;;
8297;SDS011;4187;42.778;23.242;2024-03-02T03:06:06;28.43;;;20.73;;
8297;SDS011;4187;42.778;23.242;2024-03-02T03:08:32;30.87;;;21.00;;
8297;SDS011;4187;42.778;23.242;2024-03-02T03:10:59;29.23;;;21.58;;
8297;SDS011;4187;42.778;23.242;2024-03-02T03:13:28;30.48;;;20.95;;
8297;SDS011;4187;42.778;23.242;2024-03-02T03:15:54;32.67;;;22.33;;
8297;SDS011;4187;42.778;23.242;2024-03-02T03:18:21;27.17;;;19.47;;
8297;SDS011;4187;42.778;23.242;2024-03-02T03:20:48;28.37;;;20.60;;
8297;SDS011;4187;42.778;23.242;2024-03-02T03:23:15;27.65;;;20.30;;
8297;SDS011;4187;42.778;23.242;2024-03-02T03:25:42;28.00;;;20.07;;
8297;SDS011;4187;42.778;23.242;2024-03-02T03:28:09;28.08;;;20.77;;
8297;SDS011;4187;42.778;23.242;2024-03-02T03:30:37;30.15;;;19.75;;
8297;SDS011;4187;42.778;23.242;2024-03-02T03:33:05;31.35;;;20.38;;
8297;SDS011;4187;42.778;23.242;2024-03-02T03:35:32;30.70;;;21.15;;
8297;SDS011;4187;42.778;23.242;2024-03-02T03:37:59;28.17;;;20.08;;
8297;SDS011;4187;42.778;23.242;2024-03-02T03:40:27;27.90;;;19.55;;
8297;SDS011;4187;42.778;23.242;2024-03-02T03:42:54;28.20;;;21.13;;
8297;SDS011;4187;42.778;23.242;2024-03-02T03:45:21;33.13;;;22.10;;
8297;SDS011;4187;42.778;23.242;2024-03-02T03:47:52;30.57;;;20.67;;
8297;SDS011;4187;42.778;23.242;2024-03-02T03:50:19;30.92;;;19.73;;
8297;SDS011;4187;42.778;23.242;2024-03-02T03:52:46;30.63;;;21.25;;
8297;SDS011;4187;42.778;23.242;2024-03-02T03:55:13;28.23;;;20.35;;
8297;SDS011;4187;42.778;23.242;2024-03-02T03:57:40;27.42;;;20.52;;
8297;SDS011;4187;42.778;23.242;2024-03-02T04:00:07;28.38;;;21.83;;
8297;SDS011;4187;42.778;23.242;2024-03-02T04:02:35;35.15;;;23.45;;
8297;SDS011;4187;42.778;23.242;2024-03-02T04:05:03;32.40;;;21.70;;
8297;SDS011;4187;42.778;23.242;2024-03-02T04:07:34;41.72;;;24.42;;
8297;SDS011;4187;42.778;23.242;2024-03-02T04:10:06;35.92;;;23.85;;
8297;SDS011;4187;42.778;23.242;2024-03-02T04:12:34;29.85;;;21.77;;
8297;SDS011;4187;42.778;23.242;2024-03-02T04:15:01;34.95;;;21.85;;
8297;SDS011;4187;42.778;23.242;2024-03-02T04:17:29;29.00;;;20.20;;
8297;SDS011;4187;42.778;23.242;2024-03-02T04:19:58;31.67;;;22.50;;
8297;SDS011;4187;42.778;23.242;2024-03-02T04:22:26;31.95;;;22.95;;
8297;SDS011;4187;42.778;23.242;2024-03-02T04:24:53;29.27;;;21.90;;
8297;SDS011;4187;42.778;23.242;2024-03-02T04:27:20;28.55;;;22.40;;
8297;SDS011;4187;42.778;23.242;2024-03-02T04:29:47;39.00;;;26.80;;
8297;SDS011;4187;42.778;23.242;2024-03-02T04:32:13;41.72;;;30.80;;
8297;SDS011;4187;42.778;23.242;2024-03-02T04:34:40;35.72;;;27.42;;
8297;SDS011;4187;42.778;23.242;2024-03-02T04:37:07;34.95;;;26.13;;
8297;SDS011;4187;42.778;23.242;2024-03-02T04:39:36;34.05;;;25.15;;
8297;SDS011;4187;42.778;23.242;2024-03-02T04:42:02;39.28;;;27.15;;
8297;SDS011;4187;42.778;23.242;2024-03-02T04:44:29;85.13;;;47.80;;
8297;SDS011;4187;42.778;23.242;2024-03-02T04:46:56;82.28;;;44.92;;
8297;SDS011;4187;42.778;23.242;2024-03-02T04:49:23;81.07;;;45.95;;
8297;SDS011;4187;42.778;23.242;2024-03-02T04:51:50;63.10;;;35.63;;
8297;SDS011;4187;42.778;23.242;2024-03-02T04:54:17;51.58;;;31.58;;
8297;SDS011;4187;42.778;23.242;2024-03-02T04:56:45;62.20;;;35.50;;
8297;SDS011;4187;42.778;23.242;2024-03-02T04:59:15;51.47;;;28.02;;
8297;SDS011;4187;42.778;23.242;2024-03-02T05:01:43;38.08;;;23.55;;
8297;SDS011;4187;42.778;23.242;2024-03-02T05:04:09;34.67;;;23.80;;
8297;SDS011;4187;42.778;23.242;2024-03-02T05:06:37;37.22;;;24.65;;
8297;SDS011;4187;42.778;23.242;2024-03-02T05:09:05;49.78;;;29.10;;
8297;SDS011;4187;42.778;23.242;2024-03-02T05:11:32;325.52;;;133.43;;
8297;SDS011;4187;42.778;23.242;2024-03-02T05:14:22;199.25;;;82.57;;
8297;SDS011;4187;42.778;23.242;2024-03-02T05:16:49;191.60;;;78.60;;
8297;SDS011;4187;42.778;23.242;2024-03-02T05:19:17;166.65;;;70.63;;
8297;SDS011;4187;42.778;23.242;2024-03-02T05:21:43;121.38;;;57.22;;
8297;SDS011;4187;42.778;23.242;2024-03-02T05:24:10;97.45;;;50.08;;
8297;SDS011;4187;42.778;23.242;2024-03-02T05:26:37;38.53;;;25.98;;
8297;SDS011;4187;42.778;23.242;2024-03-02T05:29:04;38.72;;;24.85;;
8297;SDS011;4187;42.778;23.242;2024-03-02T05:31:32;36.60;;;25.10;;
8297;SDS011;4187;42.778;23.242;2024-03-02T05:33:59;32.35;;;22.73;;
8297;SDS011;4187;42.778;23.242;2024-03-02T05:36:26;49.97;;;29.90;;
8297;SDS011;4187;42.778;23.242;2024-03-02T05:38:53;39.22;;;28.02;;
8297;SDS011;4187;42.778;23.242;2024-03-02T05:41:19;35.03;;;23.58;;
8297;SDS011;4187;42.778;23.242;2024-03-02T05:43:46;38.53;;;26.90;;
8297;SDS011;4187;42.778;23.242;2024-03-02T05:46:13;40.95;;;27.60;;
8297;SDS011;4187;42.778;23.242;2024-03-02T05:48:41;36.42;;;24.85;;
8297;SDS011;4187;42.778;23.242;2024-03-02T05:51:08;35.45;;;23.88;;
8297;SDS011;4187;42.778;23.242;2024-03-02T05:53:35;26.45;;;21.77;;
8297;SDS011;4187;42.778;23.242;2024-03-02T05:56:03;32.78;;;21.38;;
8297;SDS011;4187;42.778;23.242;2024-03-02T05:58:30;37.05;;;25.30;;
8297;SDS011;4187;42.778;23.242;2024-03-02T06:01:08;33.53;;;23.30;;
8297;SDS011;4187;42.778;23.242;2024-03-02T06:03:35;33.95;;;24.13;;
8297;SDS011;4187;42.778;23.242;2024-03-02T06:06:03;31.40;;;20.75;;
8297;SDS011;4187;42.778;23.242;2024-03-02T06:08:30;32.65;;;22.90;;
8297;SDS011;4187;42.778;23.242;2024-03-02T06:10:57;39.70;;;25.88;;
8297;SDS011;4187;42.778;23.242;2024-03-02T06:13:24;52.13;;;35.65;;
8297;SDS011;4187;42.778;23.242;2024-03-02T06:15:51;40.00;;;28.77;;
8297;SDS011;4187;42.778;23.242;2024-03-02T06:18:18;37.72;;;25.65;;
8297;SDS011;4187;42.778;23.242;2024-03-02T06:20:45;28.00;;;21.52;;
8297;SDS011;4187;42.778;23.242;2024-03-02T06:23:13;33.25;;;23.23;;
8297;SDS011;4187;42.778;23.242;2024-03-02T06:25:40;38.88;;;26.25;;
8297;SDS011;4187;42.778;23.242;2024-03-02T06:28:06;32.65;;;23.75;;
8297;SDS011;4187;42.778;23.242;2024-03-02T06:30:33;31.05;;;24.13;;
8297;SDS011;4187;42.778;23.242;2024-03-02T06:33:00;31.42;;;23.13;;
8297;SDS011;4187;42.778;23.242;2024-03-02T06:35:28;31.58;;;23.15;;
8297;SDS011;4187;42.778;23.242;2024-03-02T06:37:55;28.75;;;21.27;;
8297;SDS011;4187;42.778;23.242;2024-03-02T06:40:23;34.22;;;23.20;;
8297;SDS011;4187;42.778;23.242;2024-03-02T06:42:50;33.97;;;23.98;;
8297;SDS011;4187;42.778;23.242;2024-03-02T06:45:17;33.95;;;24.85;;
8297;SDS011;4187;42.778;23.242;2024-03-02T06:47:44;35.05;;;25.77;;
8297;SDS011;4187;42.778;23.242;2024-03-02T06:50:10;34.08;;;24.92;;
8297;SDS011;4187;42.778;23.242;2024-03-02T06:52:37;34.15;;;23.55;;
8297;SDS011;4187;42.778;23.242;2024-03-02T06:55:04;31.15;;;22.33;;
8297;SDS011;4187;42.778;23.242;2024-03-02T06:57:33;30.60;;;21.63;;
8297;SDS011;4187;42.778;23.242;2024-03-02T07:00:00;34.08;;;21.55;;
8297;SDS011;4187;42.778;23.242;2024-03-02T07:02:30;28.88;;;21.75;;
8297;SDS011;4187;42.778;23.242;2024-03-02T07:04:57;30.58;;;21.08;;
8297;SDS011;4187;42.778;23.242;2024-03-02T07:07:24;31.40;;;21.48;;
8297;SDS011;4187;42.778;23.242;2024-03-02T07:09:51;31.73;;;21.92;;
8297;SDS011;4187;42.778;23.242;2024-03-02T07:12:17;31.55;;;20.73;;
8297;SDS011;4187;42.778;23.242;2024-03-02T07:14:46;32.38;;;21.55;;
8297;SDS011;4187;42.778;23.242;2024-03-02T07:17:36;34.75;;;21.95;;
8297;SDS011;4187;42.778;23.242;2024-03-02T07:20:04;33.00;;;22.65;;
8297;SDS011;4187;42.778;23.242;2024-03-02T07:22:31;32.85;;;21.88;;
8297;SDS011;4187;42.778;23.242;2024-03-02T07:24:58;31.27;;;22.42;;
8297;SDS011;4187;42.778;23.242;2024-03-02T07:27:25;29.88;;;21.80;;
8297;SDS011;4187;42.778;23.242;2024-03-02T07:29:53;33.22;;;22.17;;
8297;SDS011;4187;42.778;23.242;2024-03-02T07:32:20;28.67;;;20.30;;
8297;SDS011;4187;42.778;23.242;2024-03-02T07:34:47;32.00;;;21.75;;
8297;SDS011;4187;42.778;23.242;2024-03-02T07:37:16;31.48;;;21.00;;
8297;SDS011;4187;42.778;23.242;2024-03-02T07:39:43;32.15;;;20.05;;
8297;SDS011;4187;42.778;23.242;2024-03-02T07:42:11;33.08;;;22.48;;
8297;SDS011;4187;42.778;23.242;2024-03-02T07:44:38;30.30;;;20.75;;
8297;SDS011;4187;42.778;23.242;2024-03-02T07:47:06;32.80;;;22.35;;
8297;SDS011;4187;42.778;23.242;2024-03-02T07:49:34;37.20;;;23.95;;
8297;SDS011;4187;42.778;23.242;2024-03-02T07:52:01;31.38;;;21.63;;
8297;SDS011;4187;42.778;23.242;2024-03-02T07:54:28;35.60;;;22.77;;
8297;SDS011;4187;42.778;23.242;2024-03-02T07:56:55;32.30;;;21.53;;
8297;SDS011;4187;42.778;23.242;2024-03-02T07:59:22;34.95;;;21.25;;
8297;SDS011;4187;42.778;23.242;2024-03-02T08:01:48;33.78;;;23.63;;
8297;SDS011;4187;42.778;23.242;2024-03-02T08:04:17;37.72;;;23.88;;
8297;SDS011;4187;42.778;23.242;2024-03-02T08:06:45;36.95;;;23.83;;
8297;SDS011;4187;42.778;23.242;2024-03-02T08:09:12;40.58;;;24.38;;
8297;SDS011;4187;42.778;23.242;2024-03-02T08:11:39;39.97;;;24.25;;
8297;SDS011;4187;42.778;23.242;2024-03-02T08:14:06;33.50;;;22.60;;
8297;SDS011;4187;42.778;23.242;2024-03-02T08:16:32;35.13;;;23.17;;
8297;SDS011;4187;42.778;23.242;2024-03-02T08:18:59;32.33;;;21.95;;
8297;SDS011;4187;42.778;23.242;2024-03-02T08:21:28;28.73;;;19.52;;
8297;SDS011;4187;42.778;23.242;2024-03-02T08:23:55;26.63;;;19.75;;
8297;SDS011;4187;42.778;23.242;2024-03-02T08:26:23;30.43;;;20.00;;
8297;SDS011;4187;42.778;23.242;2024-03-02T08:28:50;26.55;;;18.83;;
8297;SDS011;4187;42.778;23.242;2024-03-02T08:31:17;28.63;;;19.15;;
8297;SDS011;4187;42.778;23.242;2024-03-02T08:33:44;28.80;;;19.83;;
8297;SDS011;4187;42.778;23.242;2024-03-02T08:36:10;27.20;;;18.67;;
8297;SDS011;4187;42.778;23.242;2024-03-02T08:38:39;27.52;;;18.90;;
8297;SDS011;4187;42.778;23.242;2024-03-02T08:41:06;29.05;;;19.67;;
8297;SDS011;4187;42.778;23.242;2024-03-02T08:43:33;26.15;;;19.23;;
8297;SDS011;4187;42.778;23.242;2024-03-02T08:46:00;29.02;;;18.20;;
8297;SDS011;4187;42.778;23.242;2024-03-02T08:48:27;27.20;;;19.10;;
8297;SDS011;4187;42.778;23.242;2024-03-02T08:50:54;29.00;;;19.92;;
8297;SDS011;4187;42.778;23.242;2024-03-02T08:53:21;33.05;;;20.90;;
8297;SDS011;4187;42.778;23.242;2024-03-02T08:55:49;27.15;;;18.45;;
8297;SDS011;4187;42.778;23.242;2024-03-02T08:58:16;31.13;;;20.08;;
8297;SDS011;4187;42.778;23.242;2024-03-02T09:00:43;28.80;;;20.00;;
8297;SDS011;4187;42.778;23.242;2024-03-02T09:03:09;30.10;;;20.02;;
8297;SDS011;4187;42.778;23.242;2024-03-02T09:05:36;31.50;;;19.52;;
8297;SDS011;4187;42.778;23.242;2024-03-02T09:08:03;32.00;;;20.50;;
8297;SDS011;4187;42.778;23.242;2024-03-02T09:10:31;29.08;;;20.42;;
8297;SDS011;4187;42.778;23.242;2024-03-02T09:12:59;31.92;;;20.33;;
8297;SDS011;4187;42.778;23.242;2024-03-02T09:15:26;30.17;;;20.92;;
8297;SDS011;4187;42.778;23.242;2024-03-02T09:17:53;26.75;;;19.70;;
8297;SDS011;4187;42.778;23.242;2024-03-02T09:20:20;29.38;;;18.58;;
8297;SDS011;4187;42.778;23.242;2024-03-02T09:22:46;29.70;;;19.13;;
8297;SDS011;4187;42.778;23.242;2024-03-02T09:25:14;26.13;;;18.13;;
8297;SDS011;4187;42.778;23.242;2024-03-02T09:27:41;28.85;;;19.42;;
8297;SDS011;4187;42.778;23.242;2024-03-02T09:30:09;29.33;;;19.58;;
8297;SDS011;4187;42.778;23.242;2024-03-02T09:32:38;32.35;;;19.98;;
8297;SDS011;4187;42.778;23.242;2024-03-02T09:35:06;28.05;;;19.83;;
8297;SDS011;4187;42.778;23.242;2024-03-02T09:37:33;30.33;;;20.45;;
8297;SDS011;4187;42.778;23.242;2024-03-02T09:40:00;27.95;;;17.25;;
8297;SDS011;4187;42.778;23.242;2024-03-02T09:42:27;31.05;;;19.10;;
8297;SDS011;4187;42.778;23.242;2024-03-02T09:44:55;24.85;;;20.13;;
8297;SDS011;4187;42.778;23.242;2024-03-02T09:47:24;24.27;;;19.20;;
8297;SDS011;4187;42.778;23.242;2024-03-02T09:49:51;32.17;;;21.10;;
8297;SDS011;4187;42.778;23.242;2024-03-02T09:52:18;28.40;;;20.40;;
8297;SDS011;4187;42.778;23.242;2024-03-02T09:54:47;29.13;;;19.83;;
8297;SDS011;4187;42.778;23.242;2024-03-02T09:57:14;28.15;;;18.90;;
8297;SDS011;4187;42.778;23.242;2024-03-02T09:59:41;30.63;;;19.60;;
8297;SDS011;4187;42.778;23.242;2024-03-02T10:02:07;26.63;;;18.92;;
8297;SDS011;4187;42.778;23.242;2024-03-02T10:04:36;31.88;;;20.70;;
8297;SDS011;4187;42.778;23.242;2024-03-02T10:07:12;30.80;;;19.63;;
8297;SDS011;4187;42.778;23.242;2024-03-02T10:09:40;27.85;;;21.02;;
8297;SDS011;4187;42.778;23.242;2024-03-02T10:12:07;67.10;;;39.88;;
8297;SDS011;4187;42.778;23.242;2024-03-02T10:14:36;55.80;;;33.55;;
8297;SDS011;4187;42.778;23.242;2024-03-02T10:17:03;41.70;;;26.73;;
8297;SDS011;4187;42.778;23.242;2024-03-02T10:19:32;53.13;;;33.42;;
8297;SDS011;4187;42.778;23.242;2024-03-02T10:22:01;62.58;;;35.30;;
8297;SDS011;4187;42.778;23.242;2024-03-02T10:24:35;46.20;;;27.80;;
8297;SDS011;4187;42.778;23.242;2024-03-02T10:27:07;37.70;;;24.90;;
8297;SDS011;4187;42.778;23.242;2024-03-02T10:29:38;38.72;;;23.58;;
8297;SDS011;4187;42.778;23.242;2024-03-02T10:32:06;34.80;;;22.90;;
8297;SDS011;4187;42.778;23.242;2024-03-02T10:34:36;36.08;;;25.13;;
8297;SDS011;4187;42.778;23.242;2024-03-02T10:37:04;49.40;;;31.77;;
8297;SDS011;4187;42.778;23.242;2024-03-02T10:39:32;38.75;;;26.92;;
8297;SDS011;4187;42.778;23.242;2024-03-02T10:42:00;36.00;;;24.25;;
8297;SDS011;4187;42.778;23.242;2024-03-02T10:44:29;29.50;;;21.10;;
8297;SDS011;4187;42.778;23.242;2024-03-02T10:46:57;29.15;;;20.70;;
8297;SDS011;4187;42.778;23.242;2024-03-02T10:49:27;31.13;;;22.58;;
8297;SDS011;4187;42.778;23.242;2024-03-02T10:51:55;44.72;;;29.48;;
8297;SDS011;4187;42.778;23.242;2024-03-02T10:54:23;36.53;;;25.30;;
8297;SDS011;4187;42.778;23.242;2024-03-02T10:56:54;29.05;;;21.35;;
8297;SDS011;4187;42.778;23.242;2024-03-02T10:59:26;43.78;;;27.77;;
8297;SDS011;4187;42.778;23.242;2024-03-02T11:01:56;38.47;;;25.67;;
8297;SDS011;4187;42.778;23.242;2024-03-02T11:04:24;41.53;;;27.90;;
8297;SDS011;4187;42.778;23.242;2024-03-02T11:06:52;39.55;;;26.58;;
8297;SDS011;4187;42.778;23.242;2024-03-02T11:09:27;34.03;;;23.27;;
8297;SDS011;4187;42.778;23.242;2024-03-02T11:11:57;29.83;;;20.98;;
8297;SDS011;4187;42.778;23.242;2024-03-02T11:14:30;27.20;;;19.90;;
8297;SDS011;4187;42.778;23.242;2024-03-02T11:16:58;29.60;;;20.92;;
8297;SDS011;4187;42.778;23.242;2024-03-02T11:19:28;28.10;;;20.33;;
8297;SDS011;4187;42.778;23.242;2024-03-02T11:21:56;26.15;;;19.02;;
8297;SDS011;4187;42.778;23.242;2024-03-02T11:24:33;28.70;;;20.45;;
8297;SDS011;4187;42.778;23.242;2024-03-02T11:27:01;46.63;;;30.27;;
8297;SDS011;4187;42.778;23.242;2024-03-02T11:32:18;24.27;;;18.02;;
8297;SDS011;4187;42.778;23.242;2024-03-02T11:34:49;28.80;;;21.95;;
8297;SDS011;4187;42.778;23.242;2024-03-02T11:37:16;22.33;;;16.48;;
8297;SDS011;4187;42.778;23.242;2024-03-02T11:39:45;26.73;;;20.20;;
8297;SDS011;4187;42.778;23.242;2024-03-02T11:42:14;30.63;;;21.88;;
8297;SDS011;4187;42.778;23.242;2024-03-02T11:44:42;29.00;;;19.63;;
8297;SDS011;4187;42.778;23.242;2024-03-02T11:47:11;25.80;;;17.92;;
8297;SDS011;4187;42.778;23.242;2024-03-02T11:49:42;23.00;;;15.73;;
8297;SDS011;4187;42.778;23.242;2024-03-02T11:52:11;21.48;;;15.45;;
8297;SDS011;4187;42.778;23.242;2024-03-02T11:54:40;21.58;;;17.35;;
8297;SDS011;4187;42.778;23.242;2024-03-02T11:57:13;22.27;;;15.68;;
8297;SDS011;4187;42.778;23.242;2024-03-02T11:59:40;23.10;;;16.90;;
8297;SDS011;4187;42.778;23.242;2024-03-02T12:02:13;21.23;;;15.23;;
8297;SDS011;4187;42.778;23.242;2024-03-02T12:04:42;21.63;;;15.82;;
8297;SDS011;4187;42.778;23.242;2024-03-02T12:07:10;22.08;;;15.63;;
8297;SDS011;4187;42.778;23.242;2024-03-02T12:09:37;22.23;;;15.95;;
8297;SDS011;4187;42.778;23.242;2024-03-02T12:12:04;20.35;;;15.25;;
8297;SDS011;4187;42.778;23.242;2024-03-02T12:14:34;21.83;;;15.63;;
8297;SDS011;4187;42.778;23.242;2024-03-02T12:17:02;23.83;;;15.38;;
8297;SDS011;4187;42.778;23.242;2024-03-02T12:19:29;25.48;;;16.55;;
8297;SDS011;4187;42.778;23.242;2024-03-02T12:21:57;19.88;;;15.27;;
8297;SDS011;4187;42.778;23.242;2024-03-02T12:24:27;18.40;;;14.50;;
8297;SDS011;4187;42.778;23.242;2024-03-02T12:26:55;18.88;;;14.48;;
8297;SDS011;4187;42.778;23.242;2024-03-02T12:29:22;19.85;;;15.55;;
8297;SDS011;4187;42.778;23.242;2024-03-02T12:31:51;19.85;;;14.23;;
8297;SDS011;4187;42.778;23.242;2024-03-02T12:34:19;19.40;;;14.43;;
8297;SDS011;4187;42.778;23.242;2024-03-02T12:36:46;18.92;;;14.68;;
8297;SDS011;4187;42.778;23.242;2024-03-02T12:39:15;19.63;;;15.15;;
8297;SDS011;4187;42.778;23.242;2024-03-02T12:41:42;20.45;;;13.93;;
8297;SDS011;4187;42.778;23.242;2024-03-02T12:44:09;19.83;;;14.38;;
8297;SDS011;4187;42.778;23.242;2024-03-02T12:46:36;17.73;;;13.63;;
8297;SDS011;4187;42.778;23.242;2024-03-02T12:49:08;18.63;;;14.52;;
8297;SDS011;4187;42.778;23.242;2024-03-02T12:51:37;18.17;;;13.93;;
8297;SDS011;4187;42.778;23.242;2024-03-02T12:54:05;20.75;;;14.35;;
8297;SDS011;4187;42.778;23.242;2024-03-02T12:56:32;16.17;;;13.82;;
8297;SDS011;4187;42.778;23.242;2024-03-02T12:59:00;17.20;;;13.30;;
8297;SDS011;4187;42.778;23.242;2024-03-02T13:01:27;18.40;;;13.73;;
8297;SDS011;4187;42.778;23.242;2024-03-02T13:03:54;18.83;;;13.32;;
8297;SDS011;4187;42.778;23.242;2024-03-02T13:06:23;18.33;;;13.73;;
8297;SDS011;4187;42.778;23.242;2024-03-02T13:08:53;16.42;;;13.25;;
8297;SDS011;4187;42.778;23.242;2024-03-02T13:11:20;15.70;;;12.85;;
8297;SDS011;4187;42.778;23.242;2024-03-02T13:13:48;19.73;;;14.10;;
8297;SDS011;4187;42.778;23.242;2024-03-02T13:16:15;20.00;;;14.80;;
8297;SDS011;4187;42.778;23.242;2024-03-02T13:18:45;17.98;;;12.70;;
8297;SDS011;4187;42.778;23.242;2024-03-02T13:21:12;17.40;;;13.70;;
8297;SDS011;4187;42.778;23.242;2024-03-02T13:23:40;17.88;;;13.07;;
8297;SDS011;4187;42.778;23.242;2024-03-02T13:26:07;17.20;;;13.10;;
8297;SDS011;4187;42.778;23.242;2024-03-02T13:28:36;17.23;;;14.00;;
8297;SDS011;4187;42.778;23.242;2024-03-02T13:31:04;21.40;;;15.90;;
8297;SDS011;4187;42.778;23.242;2024-03-02T13:33:31;19.95;;;15.15;;
8297;SDS011;4187;42.778;23.242;2024-03-02T13:35:58;23.55;;;15.50;;
8297;SDS011;4187;42.778;23.242;2024-03-02T13:38:25;21.48;;;15.10;;
8297;SDS011;4187;42.778;23.242;2024-03-02T13:40:54;17.98;;;12.82;;
8297;SDS011;4187;42.778;23.242;2024-03-02T13:43:21;16.67;;;12.10;;
8297;SDS011;4187;42.778;23.242;2024-03-02T13:45:49;22.30;;;15.88;;
8297;SDS011;4187;42.778;23.242;2024-03-02T13:48:17;23.58;;;17.20;;
8297;SDS011;4187;42.778;23.242;2024-03-02T13:50:44;20.27;;;13.90;;
8297;SDS011;4187;42.778;23.242;2024-03-02T13:53:11;16.27;;;12.40;;
8297;SDS011;4187;42.778;23.242;2024-03-02T13:55:38;16.23;;;12.20;;
8297;SDS011;4187;42.778;23.242;2024-03-02T13:58:08;15.30;;;10.75;;
8297;SDS011;4187;42.778;23.242;2024-03-02T14:00:35;12.80;;;10.88;;
8297;SDS011;4187;42.778;23.242;2024-03-02T14:03:03;14.13;;;11.07;;
8297;SDS011;4187;42.778;23.242;2024-03-02T14:05:30;15.55;;;12.40;;
8297;SDS011;4187;42.778;23.242;2024-03-02T14:07:58;14.75;;;11.95;;
8297;SDS011;4187;42.778;23.242;2024-03-02T14:10:25;17.67;;;12.02;;
8297;SDS011;4187;42.778;23.242;2024-03-02T14:12:53;19.95;;;14.82;;
8297;SDS011;4187;42.778;23.242;2024-03-02T14:15:22;17.00;;;12.40;;
8297;SDS011;4187;42.778;23.242;2024-03-02T14:17:48;13.90;;;10.93;;
8297;SDS011;4187;42.778;23.242;2024-03-02T14:20:15;15.07;;;11.23;;
8297;SDS011;4187;42.778;23.242;2024-03-02T14:22:47;13.45;;;11.27;;
8297;SDS011;4187;42.778;23.242;2024-03-02T14:25:14;15.55;;;12.10;;
8297;SDS011;4187;42.778;23.242;2024-03-02T14:27:41;19.13;;;13.52;;
8297;SDS011;4187;42.778;23.242;2024-03-02T14:30:09;17.48;;;13.85;;
8297;SDS011;4187;42.778;23.242;2024-03-02T14:32:38;14.55;;;12.98;;
8297;SDS011;4187;42.778;23.242;2024-03-02T14:35:05;16.95;;;13.35;;
8297;SDS011;4187;42.778;23.242;2024-03-02T14:37:34;18.00;;;13.75;;
8297;SDS011;4187;42.778;23.242;2024-03-02T14:40:01;15.73;;;12.98;;
8297;SDS011;4187;42.778;23.242;2024-03-02T14:42:31;17.17;;;13.18;;